Time;durP1;ratioP1;P1;durP2;ratioP2;P2;SDS_P1;SDS_P2;PMS_P1;PMS_P2;Temp;Humidity;BMP_temperature;BMP_pressure;BME280_temperature;BME280_humidity;BME280_pressure;Samples;Min_cycle;Max_cycle;Signal;HPM_P1;HPM_P2
2022/03/18 00:00:40;;;;;;;19.95;13.20;;;2.50;92.40;;;;;;5069553;28;20039;-70
2022/03/18 00:03:06;;;;;;;19.08;13.07;;;2.40;92.40;;;;;;5073730;28;20048;-71
2022/03/18 00:05:34;;;;;;;19.67;12.30;;;2.30;92.40;;;;;;5072612;28;20040;-70
2022/03/18 00:07:59;;;;;;;17.15;12.82;;;2.30;92.50;;;;;;5068812;28;20037;-71
2022/03/18 00:10:26;;;;;;;17.77;12.65;;;2.20;92.30;;;;;;5069291;28;20088;-72
2022/03/18 00:12:52;;;;;;;20.63;12.90;;;2.30;92.70;;;;;;5068326;28;20036;-72
2022/03/18 00:15:19;;;;;;;20.20;13.85;;;2.20;92.70;;;;;;5052940;28;20033;-71
2022/03/18 00:17:45;;;;;;;20.80;12.27;;;2.20;92.80;;;;;;5070856;28;20044;-71
2022/03/18 00:20:13;;;;;;;15.18;11.57;;;2.10;92.80;;;;;;5070097;28;20115;-73
2022/03/18 00:22:42;;;;;;;22.40;13.55;;;2.20;93.00;;;;;;5069681;28;20032;-72
2022/03/18 00:25:12;;;;;;;21.13;15.02;;;2.20;92.80;;;;;;5065671;28;20105;-71
2022/03/18 00:27:39;;;;;;;17.48;13.30;;;2.20;93.10;;;;;;5066666;28;20028;-72
2022/03/18 00:30:06;;;;;;;18.90;13.00;;;2.30;92.90;;;;;;5070271;28;20474;-71
2022/03/18 00:32:32;;;;;;;16.40;12.13;;;2.30;93.20;;;;;;5070170;28;20094;-71
2022/03/18 00:34:59;;;;;;;18.50;12.50;;;2.20;92.60;;;;;;5076294;28;20031;-70
2022/03/18 00:37:24;;;;;;;18.42;12.65;;;2.20;92.20;;;;;;5072050;28;20036;-70
2022/03/18 00:39:50;;;;;;;16.20;12.40;;;1.90;92.30;;;;;;5070914;28;20340;-69
2022/03/18 00:42:16;;;;;;;21.50;12.95;;;1.80;92.80;;;;;;5070977;28;20680;-70
2022/03/18 00:44:42;;;;;;;18.67;13.18;;;1.70;93.40;;;;;;5071987;28;20044;-69
2022/03/18 00:52:04;;;;;;;20.05;14.48;;;1.80;93.50;;;;;;5075322;28;20063;-70
2022/03/18 00:52:39;;;;;;;19.95;13.32;;;2.20;93.60;;;;;;5054780;28;20047;-69
2022/03/18 00:55:05;;;;;;;19.80;13.63;;;2.30;93.00;;;;;;5073407;28;20036;-69
2022/03/18 00:57:31;;;;;;;39.20;23.70;;;2.30;92.90;;;;;;5075659;28;20052;-70
2022/03/18 00:59:57;;;;;;;22.92;15.32;;;2.20;93.10;;;;;;5069227;28;20081;-68
2022/03/18 01:02:22;;;;;;;20.90;13.40;;;2.10;93.30;;;;;;5072247;28;20194;-69
2022/03/18 01:04:50;;;;;;;21.58;12.50;;;2.00;93.20;;;;;;5071253;28;20131;-71
2022/03/18 01:07:16;;;;;;;15.93;12.25;;;1.90;93.20;;;;;;5071431;28;20809;-68
2022/03/18 01:09:42;;;;;;;15.50;11.15;;;1.80;93.10;;;;;;5072993;28;20562;-69
2022/03/18 01:12:09;;;;;;;14.90;10.93;;;1.80;92.80;;;;;;5057039;28;20040;-69
2022/03/18 01:14:34;;;;;;;15.05;11.43;;;1.70;92.70;;;;;;5070028;28;20524;-69
2022/03/18 01:17:00;;;;;;;18.85;12.63;;;1.60;92.90;;;;;;5071746;28;20040;-69
2022/03/18 01:19:26;;;;;;;16.13;11.65;;;1.50;93.30;;;;;;5070134;28;20047;-68
2022/03/18 01:21:52;;;;;;;17.27;13.07;;;1.50;93.40;;;;;;5070226;28;20048;-70
2022/03/18 01:24:17;;;;;;;20.35;12.90;;;1.50;93.50;;;;;;5075513;28;20524;-68
2022/03/18 01:26:43;;;;;;;16.25;12.35;;;1.60;93.70;;;;;;5070271;28;20377;-68
2022/03/18 01:29:09;;;;;;;18.67;12.57;;;1.50;93.40;;;;;;5074556;28;20670;-68
2022/03/18 01:31:34;;;;;;;18.48;13.07;;;1.40;93.70;;;;;;5075455;28;20048;-69
2022/03/18 01:34:00;;;;;;;18.25;13.30;;;1.40;94.00;;;;;;5077206;28;20036;-67
2022/03/18 01:36:26;;;;;;;18.77;13.48;;;1.40;94.10;;;;;;5070037;28;20108;-67
2022/03/18 01:38:52;;;;;;;19.85;13.82;;;1.60;93.90;;;;;;5073280;28;20032;-67
2022/03/18 01:41:18;;;;;;;25.75;15.68;;;1.60;94.00;;;;;;5071182;28;20400;-67
2022/03/18 01:43:46;;;;;;;24.50;16.40;;;1.70;94.10;;;;;;5075533;28;20036;-67
2022/03/18 01:46:13;;;;;;;21.25;13.10;;;1.70;94.30;;;;;;5072111;28;20032;-70
2022/03/18 01:48:39;;;;;;;16.63;11.88;;;1.70;93.80;;;;;;5077370;28;20099;-69
2022/03/18 01:51:06;;;;;;;20.95;12.82;;;1.30;92.70;;;;;;5074488;28;20044;-69
2022/03/18 01:53:35;;;;;;;18.35;12.95;;;1.00;93.10;;;;;;5068837;28;20029;-70
2022/03/18 01:56:01;;;;;;;15.93;11.85;;;0.80;94.10;;;;;;5068763;28;20110;-69
2022/03/18 01:58:27;;;;;;;19.08;13.60;;;0.80;94.40;;;;;;5067677;28;20623;-70
2022/03/18 02:00:53;;;;;;;16.20;11.88;;;0.90;94.70;;;;;;5064016;28;20048;-69
2022/03/18 02:03:18;;;;;;;20.77;13.45;;;1.00;94.70;;;;;;5074844;28;20040;-69
2022/03/18 02:05:44;;;;;;;20.45;14.73;;;1.10;94.70;;;;;;5071405;28;20028;-69
2022/03/18 02:08:10;;;;;;;20.67;14.80;;;1.10;94.80;;;;;;5070617;28;20035;-70
2022/03/18 02:10:37;;;;;;;22.10;14.98;;;1.10;95.30;;;;;;5065343;28;20056;-69
2022/03/18 02:13:03;;;;;;;20.15;14.57;;;1.20;95.20;;;;;;5069109;28;20707;-69
2022/03/18 02:15:29;;;;;;;22.00;14.95;;;1.30;95.10;;;;;;5053804;28;20051;-69
2022/03/18 02:17:55;;;;;;;22.25;14.55;;;1.40;94.80;;;;;;5068133;28;20036;-69
2022/03/18 02:20:21;;;;;;;20.25;12.75;;;1.40;95.00;;;;;;5072390;28;20105;-69
2022/03/18 02:22:47;;;;;;;18.60;12.50;;;1.50;94.40;;;;;;5075347;28;20051;-69
2022/03/18 02:25:12;;;;;;;16.15;12.13;;;1.40;93.90;;;;;;5070376;28;20462;-66
2022/03/18 02:27:40;;;;;;;17.08;12.23;;;1.10;93.90;;;;;;5067780;28;20044;-66
2022/03/18 02:30:08;;;;;;;26.92;17.48;;;0.80;94.30;;;;;;5070690;28;20076;-66
2022/03/18 02:32:34;;;;;;;34.78;21.73;;;0.80;95.40;;;;;;5064251;28;20070;-66
2022/03/18 02:35:03;;;;;;;31.70;21.73;;;1.00;96.60;;;;;;5067638;28;20518;-66
2022/03/18 02:37:29;;;;;;;29.35;20.85;;;1.20;97.00;;;;;;5071356;28;20531;-66
2022/03/18 02:39:59;;;;;;;24.77;17.45;;;1.50;96.90;;;;;;5062671;28;20056;-66
2022/03/18 02:42:24;;;;;;;23.95;15.77;;;1.50;95.90;;;;;;5067239;28;20044;-66
2022/03/18 02:44:50;;;;;;;23.48;15.77;;;1.30;95.00;;;;;;5071471;28;20031;-66
2022/03/18 02:47:16;;;;;;;25.13;17.55;;;1.20;95.00;;;;;;5071022;28;20038;-66
2022/03/18 02:49:42;;;;;;;25.80;17.55;;;1.00;95.90;;;;;;5067053;28;20040;-66
2022/03/18 02:52:08;;;;;;;20.58;15.05;;;1.00;96.20;;;;;;5067852;28;20049;-66
2022/03/18 02:54:35;;;;;;;31.98;17.77;;;1.00;95.80;;;;;;5066884;28;21061;-66
2022/03/18 02:57:00;;;;;;;23.52;17.20;;;1.00;96.00;;;;;;5058645;28;20055;-66
2022/03/18 02:59:26;;;;;;;26.00;17.58;;;1.10;96.20;;;;;;5078025;28;20047;-66
2022/03/18 03:01:52;;;;;;;26.15;17.73;;;1.10;96.00;;;;;;5067188;28;20840;-66
2022/03/18 03:04:17;;;;;;;29.77;18.50;;;1.20;95.70;;;;;;5062221;28;20040;-66
2022/03/18 03:09:28;;;;;;;30.13;19.73;;;1.40;95.50;;;;;;5065791;28;20206;-66
2022/03/18 03:11:54;;;;;;;27.40;19.25;;;1.60;95.60;;;;;;5067335;28;20029;-66
2022/03/18 03:14:20;;;;;;;27.50;20.23;;;1.90;95.50;;;;;;5068510;28;20089;-66
2022/03/18 03:16:46;;;;;;;28.45;19.55;;;1.90;96.20;;;;;;5063632;28;20037;-66
2022/03/18 03:19:13;;;;;;;26.55;19.38;;;1.90;95.80;;;;;;5070740;28;20516;-66
2022/03/18 03:21:40;;;;;;;27.23;19.75;;;1.80;95.60;;;;;;5066687;28;20146;-66
2022/03/18 03:24:06;;;;;;;28.38;20.17;;;1.70;95.50;;;;;;5063200;28;20053;-66
2022/03/18 03:26:31;;;;;;;29.95;19.27;;;1.80;95.90;;;;;;5068052;28;20698;-66
2022/03/18 03:28:57;;;;;;;27.77;18.77;;;1.80;95.60;;;;;;5048775;28;20056;-66
2022/03/18 03:31:23;;;;;;;28.60;18.70;;;1.70;95.40;;;;;;5068499;28;20190;-66
2022/03/18 03:33:49;;;;;;;25.83;17.30;;;1.70;95.70;;;;;;5068329;28;20032;-66
2022/03/18 03:36:14;;;;;;;24.13;16.92;;;1.60;96.00;;;;;;5069216;28;20044;-66
2022/03/18 03:38:41;;;;;;;24.90;17.85;;;1.60;95.60;;;;;;5066281;28;20044;-66
2022/03/18 03:41:06;;;;;;;25.73;17.73;;;1.50;95.70;;;;;;5072962;28;20056;-66
2022/03/18 03:43:32;;;;;;;26.63;18.30;;;1.50;96.00;;;;;;5069985;28;20090;-67
2022/03/18 04:07:33;;;;;;;28.08;18.10;;;1.40;95.80;;;;;;5045154;28;20983;-67
2022/03/18 04:09:59;;;;;;;27.38;18.08;;;1.30;96.00;;;;;;5029044;28;20048;-66
2022/03/18 04:12:24;;;;;;;29.40;18.88;;;1.30;96.30;;;;;;5027552;28;20040;-66
2022/03/18 04:14:51;;;;;;;27.08;17.83;;;1.40;96.40;;;;;;5026287;28;20123;-66
2022/03/18 04:17:17;;;;;;;25.80;17.83;;;1.40;96.30;;;;;;5020385;28;20025;-66
2022/03/18 04:19:43;;;;;;;28.33;20.10;;;1.50;96.10;;;;;;5030969;28;20036;-70
2022/03/18 04:22:09;;;;;;;27.55;20.10;;;1.40;96.00;;;;;;5027710;28;20546;-69
2022/03/18 04:24:35;;;;;;;26.88;18.88;;;1.60;96.20;;;;;;5026833;28;20075;-69
2022/03/18 04:27:00;;;;;;;27.75;20.08;;;1.60;95.90;;;;;;5030326;28;20030;-69
2022/03/18 04:29:26;;;;;;;23.77;15.90;;;1.60;96.10;;;;;;5024876;28;20049;-69
2022/03/18 04:31:52;;;;;;;21.73;16.27;;;1.60;95.60;;;;;;5031232;28;20125;-69
2022/03/18 04:34:18;;;;;;;25.63;15.63;;;1.50;95.40;;;;;;5033524;28;20472;-70
2022/03/18 04:36:44;;;;;;;25.10;16.70;;;1.40;95.40;;;;;;5033161;28;20045;-70
2022/03/18 04:39:09;;;;;;;24.25;16.50;;;1.40;95.30;;;;;;5033129;28;20581;-69
2022/03/18 04:41:35;;;;;;;24.55;17.25;;;1.30;95.40;;;;;;5029269;28;20055;-70
2022/03/18 04:44:01;;;;;;;23.98;16.55;;;1.30;95.90;;;;;;5034720;28;20423;-69
2022/03/18 04:46:28;;;;;;;25.45;16.60;;;1.30;95.90;;;;;;5029663;28;20065;-69
2022/03/18 04:48:54;;;;;;;25.58;17.73;;;1.30;96.00;;;;;;5027565;28;20042;-69
2022/03/18 04:51:20;;;;;;;27.48;17.15;;;1.30;96.30;;;;;;5034125;28;20050;-70
2022/03/18 04:53:46;;;;;;;23.90;16.73;;;1.30;96.50;;;;;;5034472;28;20038;-69
2022/03/18 04:58:56;;;;;;;30.40;16.88;;;1.30;96.20;;;;;;5029014;28;20053;-70
2022/03/18 05:01:22;;;;;;;23.25;16.67;;;1.30;96.20;;;;;;5027668;28;20065;-69
2022/03/18 05:03:48;;;;;;;23.63;17.27;;;1.40;96.30;;;;;;5029130;28;20671;-70
2022/03/18 05:06:14;;;;;;;27.75;19.00;;;1.50;96.40;;;;;;5026649;28;20037;-69
2022/03/18 05:08:40;;;;;;;31.42;18.85;;;1.50;96.10;;;;;;5038360;28;20128;-69
2022/03/18 05:11:05;;;;;;;28.58;19.77;;;1.60;96.00;;;;;;5046167;28;20194;-69
2022/03/18 05:13:31;;;;;;;41.67;25.25;;;1.50;95.90;;;;;;5045736;28;20041;-70
2022/03/18 05:15:56;;;;;;;77.38;49.22;;;1.40;96.30;;;;;;5049539;28;20096;-70
2022/03/18 05:18:22;;;;;;;46.42;31.58;;;1.30;96.40;;;;;;5052847;28;20186;-70
2022/03/18 05:20:48;;;;;;;37.38;27.02;;;1.20;96.60;;;;;;5055589;28;20079;-69
2022/03/18 05:23:14;;;;;;;28.40;19.98;;;1.20;96.70;;;;;;5052138;28;20056;-69
2022/03/18 05:25:40;;;;;;;32.40;20.85;;;1.20;96.60;;;;;;5052540;28;20602;-70
2022/03/18 05:28:07;;;;;;;29.20;18.92;;;1.20;96.50;;;;;;5053341;28;20037;-70
2022/03/18 05:30:34;;;;;;;29.23;19.95;;;1.20;96.50;;;;;;5052035;28;20043;-69
2022/03/18 05:33:00;;;;;;;27.92;19.55;;;1.10;96.90;;;;;;5045619;28;20036;-69
2022/03/18 05:35:25;;;;;;;31.88;21.85;;;1.00;96.90;;;;;;5047073;28;20045;-69
2022/03/18 05:37:51;;;;;;;33.42;22.50;;;1.10;97.30;;;;;;5053391;28;20060;-69
2022/03/18 05:40:18;;;;;;;32.83;23.15;;;1.20;97.30;;;;;;5053133;28;20060;-69
2022/03/18 05:42:45;;;;;;;46.75;31.10;;;1.30;97.20;;;;;;5046934;28;20197;-69
2022/03/18 05:45:11;;;;;;;43.55;29.38;;;1.50;96.80;;;;;;5054178;28;20880;-69
2022/03/18 05:47:37;;;;;;;47.15;34.67;;;1.70;96.50;;;;;;5046743;28;20033;-68
2022/03/18 05:50:05;;;;;;;33.35;23.95;;;1.70;96.60;;;;;;5050279;28;20043;-69
2022/03/18 05:52:35;;;;;;;31.50;22.48;;;1.80;96.70;;;;;;5055048;28;20158;-69
2022/03/18 05:55:01;;;;;;;35.72;25.40;;;1.80;97.20;;;;;;5050968;28;20032;-67
2022/03/18 05:57:28;;;;;;;51.33;32.53;;;1.80;97.10;;;;;;5055376;28;20033;-67
2022/03/18 05:59:55;;;;;;;51.65;34.10;;;1.90;97.00;;;;;;5053333;28;20506;-67
2022/03/18 06:02:21;;;;;;;44.50;31.83;;;2.00;96.80;;;;;;5049010;28;20055;-68
2022/03/18 06:04:47;;;;;;;45.78;31.65;;;2.10;97.10;;;;;;5055783;28;20035;-68
2022/03/18 06:07:14;;;;;;;44.67;30.80;;;2.20;97.40;;;;;;5048685;28;20048;-67
2022/03/18 06:12:24;;;;;;;58.35;35.83;;;2.20;97.00;;;;;;5050915;28;20052;-67
2022/03/18 06:14:50;;;;;;;54.28;33.67;;;2.10;97.50;;;;;;5051459;28;20438;-69
2022/03/18 06:17:15;;;;;;;54.92;33.70;;;2.00;97.50;;;;;;5049747;28;20044;-68
2022/03/18 06:19:41;;;;;;;56.90;33.58;;;2.10;97.70;;;;;;5053844;28;20036;-68
2022/03/18 06:22:08;;;;;;;52.03;34.08;;;2.20;97.80;;;;;;5057236;28;20051;-68
2022/03/18 06:24:34;;;;;;;55.90;36.88;;;2.20;97.70;;;;;;5050437;28;20048;-68
2022/03/18 06:27:01;;;;;;;58.65;37.22;;;2.30;97.80;;;;;;5053398;28;20044;-68
2022/03/18 06:29:31;;;;;;;58.53;38.80;;;2.30;97.90;;;;;;5050576;28;20037;-68
2022/03/18 06:32:01;;;;;;;56.67;34.97;;;2.40;97.60;;;;;;5053436;28;20040;-72
2022/03/18 06:34:27;;;;;;;58.97;34.85;;;2.50;97.60;;;;;;5051829;28;20119;-75
2022/03/18 06:36:55;;;;;;;53.53;34.00;;;2.60;97.60;;;;;;5058359;28;20600;-72
2022/03/18 06:39:22;;;;;;;51.75;33.00;;;2.60;97.80;;;;;;5055976;28;20079;-72
2022/03/18 06:41:48;;;;;;;48.75;31.70;;;2.70;97.70;;;;;;5050321;28;20041;-73
2022/03/18 06:44:14;;;;;;;47.75;31.38;;;2.80;97.50;;;;;;5058545;28;20121;-72
2022/03/18 06:46:39;;;;;;;51.08;33.88;;;2.90;97.40;;;;;;5053018;28;20116;-72
2022/03/18 06:49:06;;;;;;;45.25;31.80;;;3.00;97.50;;;;;;5050511;28;20110;-72
2022/03/18 06:51:32;;;;;;;48.35;30.88;;;3.10;97.20;;;;;;5053332;28;20037;-72
2022/03/18 06:53:58;;;;;;;47.33;30.63;;;3.20;96.60;;;;;;5054134;28;20029;-73
2022/03/18 06:56:25;;;;;;;41.83;29.95;;;3.40;95.60;;;;;;5056047;28;20365;-72
2022/03/18 06:58:51;;;;;;;43.55;28.98;;;3.60;95.10;;;;;;5047482;28;20037;-73
2022/03/18 07:01:17;;;;;;;44.35;28.92;;;3.70;94.10;;;;;;5053005;28;20109;-73
2022/03/18 07:03:43;;;;;;;34.30;22.73;;;3.90;93.60;;;;;;5054715;28;20068;-72
2022/03/18 07:06:09;;;;;;;36.60;23.27;;;3.90;91.40;;;;;;5054415;28;20533;-73
2022/03/18 07:08:35;;;;;;;26.98;13.43;;;3.90;90.00;;;;;;5051097;28;20037;-73
2022/03/18 07:11:02;;;;;;;17.00;9.10;;;3.80;84.50;;;;;;5059111;28;20036;-73
2022/03/18 07:13:28;;;;;;;12.07;7.05;;;3.80;81.90;;;;;;5053145;28;20069;-73
2022/03/18 07:15:54;;;;;;;9.32;6.65;;;3.80;78.30;;;;;;5045613;28;20237;-73
2022/03/18 07:18:19;;;;;;;10.90;6.40;;;3.80;75.20;;;;;;5051905;28;20484;-72
2022/03/18 07:20:45;;;;;;;13.43;6.72;;;3.70;74.50;;;;;;5052530;28;20041;-73
2022/03/18 07:23:12;;;;;;;9.55;6.53;;;3.80;75.90;;;;;;5055248;28;20025;-73
2022/03/18 07:25:41;;;;;;;11.82;7.10;;;3.90;74.20;;;;;;5054159;28;20029;-73
2022/03/18 07:28:08;;;;;;;10.80;6.68;;;3.90;73.50;;;;;;5055169;28;20040;-72
2022/03/18 07:30:35;;;;;;;11.25;6.32;;;4.00;70.10;;;;;;5050681;28;20421;-74
2022/03/18 07:33:01;;;;;;;9.25;5.90;;;4.00;70.50;;;;;;5051266;28;20033;-73
2022/03/18 07:35:27;;;;;;;9.93;6.30;;;4.10;70.20;;;;;;5054891;28;20037;-73
2022/03/18 07:37:53;;;;;;;10.57;6.50;;;4.20;70.80;;;;;;5050906;28;20366;-73
2022/03/18 07:40:19;;;;;;;10.63;6.32;;;4.30;71.10;;;;;;5031801;28;20056;-73
2022/03/18 07:42:50;;;;;;;8.77;5.93;;;4.30;70.80;;;;;;5051081;28;20052;-74
2022/03/18 07:45:21;;;;;;;10.75;6.25;;;4.40;68.30;;;;;;5056003;28;20028;-73
2022/03/18 07:47:51;;;;;;;9.90;6.60;;;4.50;66.40;;;;;;5050325;28;20044;-73
2022/03/18 07:50:21;;;;;;;9.10;6.38;;;4.50;68.00;;;;;;5049557;28;20567;-73
2022/03/18 07:52:48;;;;;;;8.52;6.28;;;4.60;68.50;;;;;;5051905;28;20566;-72
2022/03/18 07:55:13;;;;;;;11.07;7.07;;;4.80;66.80;;;;;;5054557;28;20037;-72
2022/03/18 07:57:39;;;;;;;10.98;6.50;;;4.90;66.60;;;;;;5054077;28;20040;-73
2022/03/18 08:00:05;;;;;;;9.93;6.70;;;5.00;65.70;;;;;;5053504;28;21180;-73
2022/03/18 08:02:31;;;;;;;11.55;7.13;;;4.90;65.10;;;;;;5051795;28;20129;-72
2022/03/18 08:04:57;;;;;;;10.90;7.00;;;4.90;65.70;;;;;;5054555;28;20066;-72
2022/03/18 08:07:22;;;;;;;15.00;6.68;;;5.00;65.50;;;;;;5044083;28;20056;-70
2022/03/18 08:09:48;;;;;;;12.27;6.82;;;5.00;64.30;;;;;;5051976;28;21049;-69
2022/03/18 08:12:13;;;;;;;9.88;6.28;;;5.10;64.40;;;;;;5050857;28;20463;-70
2022/03/18 08:14:39;;;;;;;12.20;5.95;;;5.20;63.70;;;;;;5057775;28;20047;-70
2022/03/18 08:17:06;;;;;;;11.18;6.13;;;5.30;63.10;;;;;;5048453;28;20025;-70
2022/03/18 08:19:31;;;;;;;11.32;6.55;;;5.40;63.30;;;;;;5052254;28;20079;-70
2022/03/18 08:21:57;;;;;;;9.40;6.95;;;5.50;62.10;;;;;;5047592;28;20123;-69
2022/03/18 08:24:23;;;;;;;10.52;6.47;;;5.70;62.30;;;;;;5046110;28;20037;-70
2022/03/18 08:26:48;;;;;;;9.10;5.88;;;5.70;62.40;;;;;;5052179;28;20040;-70
2022/03/18 08:29:14;;;;;;;10.95;6.78;;;5.80;60.30;;;;;;5050483;28;20036;-70
2022/03/18 08:31:40;;;;;;;10.30;6.55;;;5.80;60.70;;;;;;5055293;28;20040;-70
2022/03/18 08:34:05;;;;;;;12.38;6.40;;;5.80;58.80;;;;;;5055715;28;20086;-70
2022/03/18 08:36:31;;;;;;;12.63;6.25;;;5.50;59.20;;;;;;5048321;28;20124;-70
2022/03/18 08:38:57;;;;;;;10.05;6.43;;;5.50;60.60;;;;;;5050800;28;20398;-70
2022/03/18 08:41:22;;;;;;;9.52;5.60;;;5.60;61.70;;;;;;5052925;28;20678;-69
2022/03/18 08:43:48;;;;;;;11.65;6.80;;;5.60;60.30;;;;;;5049423;28;20441;-70
2022/03/18 08:46:13;;;;;;;10.48;6.40;;;5.70;60.20;;;;;;5053117;28;20033;-69
2022/03/18 08:48:39;;;;;;;12.48;6.88;;;5.70;59.60;;;;;;5051257;28;20039;-69
2022/03/18 08:51:05;;;;;;;10.35;6.80;;;5.70;59.50;;;;;;5051003;28;20045;-71
2022/03/18 08:53:31;;;;;;;12.25;6.55;;;5.70;59.30;;;;;;5054924;28;20071;-70
2022/03/18 08:55:56;;;;;;;12.13;7.53;;;5.70;59.50;;;;;;5051222;28;20037;-70
2022/03/18 08:58:22;;;;;;;9.95;6.32;;;5.60;59.00;;;;;;5054465;28;20028;-71
2022/03/18 09:00:49;;;;;;;11.38;7.18;;;5.60;59.60;;;;;;5057415;28;20782;-71
2022/03/18 09:03:14;;;;;;;15.48;6.90;;;5.70;60.10;;;;;;5052775;28;20083;-71
2022/03/18 09:05:42;;;;;;;12.68;7.15;;;5.80;59.50;;;;;;5053914;28;20041;-73
2022/03/18 09:08:07;;;;;;;12.73;7.68;;;5.80;58.40;;;;;;5053288;28;20406;-73
2022/03/18 09:10:33;;;;;;;10.27;6.55;;;5.70;58.30;;;;;;5053365;28;20114;-73
2022/03/18 09:13:00;;;;;;;14.48;9.45;;;5.70;59.20;;;;;;5056182;28;20581;-74
2022/03/18 09:15:28;;;;;;;13.40;9.18;;;5.90;61.30;;;;;;5053091;28;20053;-73
2022/03/18 09:17:53;;;;;;;12.07;7.35;;;6.10;60.30;;;;;;5056195;28;20091;-73
2022/03/18 09:20:19;;;;;;;14.68;11.10;;;6.20;59.30;;;;;;5056653;28;20029;-73
2022/03/18 09:22:45;;;;;;;12.05;8.82;;;6.20;59.00;;;;;;5053567;28;20041;-73
2022/03/18 09:25:11;;;;;;;11.70;7.97;;;6.20;59.20;;;;;;5056325;28;20791;-74
2022/03/18 09:27:37;;;;;;;11.57;7.40;;;6.30;59.50;;;;;;5054115;28;20037;-74
2022/03/18 09:30:03;;;;;;;15.07;7.78;;;6.40;58.90;;;;;;5059103;28;20754;-74
2022/03/18 09:32:29;;;;;;;12.30;8.15;;;6.50;58.00;;;;;;5057766;28;20036;-73
2022/03/18 09:34:56;;;;;;;17.02;8.60;;;6.60;58.20;;;;;;5056480;28;20033;-72
2022/03/18 09:37:22;;;;;;;11.43;7.85;;;6.70;58.80;;;;;;5057862;28;20094;-73
2022/03/18 09:39:48;;;;;;;13.38;9.00;;;6.80;58.50;;;;;;5061059;28;20033;-72
2022/03/18 09:42:14;;;;;;;11.55;8.38;;;6.80;57.80;;;;;;5059244;28;20052;-71
2022/03/18 09:44:40;;;;;;;13.75;8.32;;;6.70;58.90;;;;;;5060050;28;20037;-70
2022/03/18 09:47:07;;;;;;;22.58;13.10;;;6.90;59.00;;;;;;5054820;28;20508;-71
2022/03/18 09:49:34;;;;;;;15.90;10.35;;;6.90;57.80;;;;;;5060213;28;20055;-71
2022/03/18 09:52:00;;;;;;;11.80;7.47;;;7.00;58.80;;;;;;5057813;28;20067;-71
2022/03/18 09:54:28;;;;;;;14.02;10.73;;;7.10;57.30;;;;;;5056911;28;20119;-71
2022/03/18 09:56:54;;;;;;;15.85;9.43;;;7.10;56.50;;;;;;5051766;28;20040;-71
2022/03/18 09:59:22;;;;;;;10.93;7.85;;;7.00;57.00;;;;;;5054906;28;20049;-70
2022/03/18 10:01:48;;;;;;;11.98;8.30;;;7.00;56.60;;;;;;5049358;28;20576;-70
2022/03/18 10:04:14;;;;;;;15.73;8.45;;;7.10;56.30;;;;;;5052063;28;20045;-70
2022/03/18 10:06:42;;;;;;;25.73;16.67;;;7.30;57.40;;;;;;5056986;28;20123;-71
2022/03/18 10:09:08;;;;;;;13.23;9.18;;;7.30;56.80;;;;;;5055309;28;20159;-71
2022/03/18 10:11:40;;;;;;;16.40;8.73;;;7.50;56.60;;;;;;5050433;28;20090;-71
2022/03/18 10:14:07;;;;;;;75.18;36.67;;;7.60;56.40;;;;;;5056031;28;20037;-72
2022/03/18 10:16:37;;;;;;;22.65;13.00;;;7.70;56.00;;;;;;5049421;28;20106;-71
2022/03/18 10:19:08;;;;;;;25.00;14.57;;;7.70;55.20;;;;;;5051870;28;20047;-71
2022/03/18 10:21:51;;;;;;;18.67;9.73;;;7.60;56.70;;;;;;5049984;28;21311;-71
2022/03/18 10:24:19;;;;;;;17.42;11.77;;;7.80;57.10;;;;;;5050827;28;20072;-71
2022/03/18 10:26:44;;;;;;;14.63;8.48;;;8.10;56.10;;;;;;5050956;28;20033;-71
2022/03/18 10:29:11;;;;;;;11.25;7.45;;;8.20;55.00;;;;;;5049285;28;20555;-71
2022/03/18 10:31:45;;;;;;;12.90;8.52;;;8.30;54.40;;;;;;5057737;28;20131;-71
2022/03/18 10:37:05;;;;;;;15.13;10.77;;;8.20;54.90;;;;;;5057418;28;20537;-71
2022/03/18 10:39:42;;;;;;;11.88;8.85;;;8.30;54.60;;;;;;5053291;28;20155;-72
2022/03/18 10:42:12;;;;;;;16.55;8.82;;;8.10;53.40;;;;;;5056588;28;20072;-71
2022/03/18 10:44:48;;;;;;;17.27;9.07;;;8.00;53.90;;;;;;5055184;28;20037;-71
2022/03/18 10:47:32;;;;;;;17.73;11.93;;;8.00;55.40;;;;;;5052545;28;20111;-71
2022/03/18 10:50:10;;;;;;;27.85;19.52;;;8.20;54.10;;;;;;5050400;28;20037;-71
2022/03/18 10:52:39;;;;;;;16.02;8.95;;;8.20;54.80;;;;;;5052884;28;20116;-70
2022/03/18 10:55:22;;;;;;;13.35;9.18;;;8.40;54.40;;;;;;5053823;28;20401;-70
2022/03/18 10:58:00;;;;;;;19.42;11.88;;;8.50;53.00;;;;;;5048590;28;20084;-71
2022/03/18 11:00:30;;;;;;;16.73;11.52;;;8.50;54.20;;;;;;5052902;28;20568;-71
2022/03/18 11:03:00;;;;;;;10.57;8.85;;;8.50;54.30;;;;;;5052313;28;20041;-71
2022/03/18 11:05:30;;;;;;;18.08;12.40;;;8.70;54.40;;;;;;5050845;28;20529;-71
2022/03/18 11:07:58;;;;;;;14.38;9.25;;;8.90;54.30;;;;;;5046741;28;20063;-72
2022/03/18 11:13:10;;;;;;;18.80;10.68;;;8.80;53.30;;;;;;5050297;28;20048;-71
2022/03/18 11:15:40;;;;;;;12.82;9.23;;;8.70;52.80;;;;;;5049294;28;20398;-71
2022/03/18 11:18:11;;;;;;;12.18;9.00;;;8.80;53.00;;;;;;5045158;28;20045;-70
2022/03/18 11:20:43;;;;;;;13.68;10.18;;;8.90;54.90;;;;;;5047769;28;20447;-71
2022/03/18 11:23:19;;;;;;;15.07;10.98;;;9.10;54.60;;;;;;5051575;28;20037;-71
2022/03/18 11:25:51;;;;;;;15.82;11.25;;;9.20;52.60;;;;;;5051697;28;20120;-68
2022/03/18 11:28:18;;;;;;;14.10;9.32;;;9.20;52.90;;;;;;5046295;28;20473;-74
2022/03/18 11:30:47;;;;;;;24.55;11.55;;;9.20;52.70;;;;;;5054233;28;20497;-71
2022/03/18 11:33:15;;;;;;;47.97;30.05;;;9.20;52.10;;;;;;5053696;28;20062;-71
2022/03/18 11:35:50;;;;;;;14.88;11.52;;;9.20;52.60;;;;;;5052723;28;20041;-71
2022/03/18 11:38:25;;;;;;;22.08;14.20;;;9.40;53.00;;;;;;5053115;28;20381;-75
2022/03/18 11:40:57;;;;;;;27.08;19.42;;;9.60;52.60;;;;;;5049106;28;20148;-74
2022/03/18 11:43:33;;;;;;;31.00;20.35;;;9.70;52.00;;;;;;5052051;28;20116;-74
2022/03/18 11:46:17;;;;;;;38.15;25.10;;;9.70;52.30;;;;;;5046811;28;20044;-75
2022/03/18 11:48:57;;;;;;;31.45;20.33;;;9.90;51.90;;;;;;5050758;28;20037;-74
2022/03/18 11:51:40;;;;;;;14.45;10.50;;;10.00;52.20;;;;;;5049959;28;20063;-75
2022/03/18 11:54:07;;;;;;;20.98;11.15;;;10.10;50.90;;;;;;5053257;28;20086;-74
2022/03/18 11:56:53;;;;;;;14.02;10.40;;;10.00;51.70;;;;;;5052340;28;20059;-71
2022/03/18 11:59:25;;;;;;;17.23;12.40;;;10.20;52.00;;;;;;5050942;28;20044;-72
2022/03/18 12:01:59;;;;;;;41.13;28.60;;;10.20;51.20;;;;;;5048115;28;20048;-71
2022/03/18 12:04:38;;;;;;;21.95;14.95;;;10.30;51.30;;;;;;5043779;28;20509;-71
2022/03/18 12:07:24;;;;;;;21.00;12.90;;;10.50;51.70;;;;;;5051923;28;20155;-72
2022/03/18 12:10:06;;;;;;;16.48;11.82;;;10.60;51.20;;;;;;5044299;28;20048;-71
2022/03/18 12:12:42;;;;;;;23.17;13.38;;;10.60;50.60;;;;;;5049550;28;20051;-71
2022/03/18 12:15:09;;;;;;;22.20;13.15;;;10.60;52.50;;;;;;5048161;28;20489;-71
2022/03/18 12:17:43;;;;;;;16.92;11.55;;;10.70;51.30;;;;;;5051671;28;20060;-71
2022/03/18 12:20:11;;;;;;;23.48;15.05;;;10.70;50.30;;;;;;5052107;28;20075;-71
2022/03/18 12:22:38;;;;;;;21.23;15.27;;;10.90;50.70;;;;;;5046427;28;20612;-72
2022/03/18 12:25:05;;;;;;;19.13;11.65;;;11.00;50.40;;;;;;5055211;28;20029;-71
2022/03/18 12:27:36;;;;;;;21.65;12.23;;;11.20;49.60;;;;;;5057177;28;20044;-72
2022/03/18 12:30:04;;;;;;;16.43;11.53;;;11.30;49.30;;;;;;5054416;28;20051;-72
2022/03/18 12:32:30;;;;;;;17.67;13.00;;;11.40;49.90;;;;;;5048683;28;20147;-75
2022/03/18 12:34:57;;;;;;;26.88;12.27;;;11.40;48.30;;;;;;5051139;28;20044;-71
2022/03/18 12:37:31;;;;;;;16.48;11.77;;;11.30;48.00;;;;;;5045548;28;20048;-71
2022/03/18 12:40:10;;;;;;;16.58;12.43;;;11.40;49.20;;;;;;5054314;28;20033;-71
2022/03/18 12:42:53;;;;;;;34.30;20.65;;;11.40;48.50;;;;;;5054242;28;20068;-71
2022/03/18 12:45:34;;;;;;;34.55;24.60;;;11.40;49.00;;;;;;5050281;28;20111;-72
2022/03/18 12:48:02;;;;;;;16.65;11.57;;;11.30;48.40;;;;;;5049739;28;20039;-72
2022/03/18 12:50:33;;;;;;;16.60;10.75;;;11.30;48.30;;;;;;5062299;28;20509;-73
2022/03/18 12:53:15;;;;;;;34.47;24.52;;;11.20;48.10;;;;;;5051300;28;20123;-76
2022/03/18 12:55:42;;;;;;;18.35;13.35;;;11.10;49.00;;;;;;5057640;28;20048;-76
2022/03/18 12:58:08;;;;;;;24.10;16.92;;;11.20;48.70;;;;;;5052608;28;20167;-75
2022/03/18 13:00:46;;;;;;;30.15;20.77;;;11.20;48.30;;;;;;5055265;28;20849;-76
2022/03/18 13:03:17;;;;;;;27.33;19.73;;;11.10;48.80;;;;;;5058187;28;20170;-74
2022/03/18 13:05:44;;;;;;;27.45;18.90;;;11.20;49.40;;;;;;5050785;28;20474;-75
2022/03/18 13:08:11;;;;;;;14.88;11.82;;;11.30;49.00;;;;;;5056837;28;20626;-75
2022/03/18 13:10:37;;;;;;;21.27;14.77;;;11.50;47.70;;;;;;5057446;28;20040;-74
2022/03/18 13:13:10;;;;;;;18.35;13.77;;;11.60;48.40;;;;;;5059716;28;20024;-74
2022/03/18 13:15:47;;;;;;;16.48;11.30;;;11.60;48.10;;;;;;5057093;28;20039;-74
2022/03/18 13:18:17;;;;;;;16.52;12.80;;;11.60;48.70;;;;;;5045077;28;20090;-75